EVLA/LPX METAR and TAF weather

Enter ICAO airport designator
Station Type Date Time Source
EVLA METAR 2021/07/30 06:50 UTC NOAA

EVLA 300650Z AUTO 24022G32KT 9999 TS FEW031/// SCT076/// //////CB 20/13 Q1002


Station Type Date Time Source
EVLA Decoded METAR 2021/07/30 06:50 UTC NOAA

Liepaja International Airport, Latvia (EVLA) 56-31N 021-05E
Jul 30, 2021 - 02:50 AM EDT / 2021.07.30 0650 UTC
Wind: from the WSW (240 degrees) at 25 MPH (22 KT) gusting to 37 MPH (32 KT):0
Visibility: greater than 7 mile(s):0
Sky conditions: partly cloudy
Weather: thunder; Cumulonimbus clouds observed
Temperature: 68 F (20 C)
Dew Point: 55 F (13 C)
Relative Humidity: 64%
Pressure (altimeter): 29.59 in. Hg (1002 hPa)
ob: EVLA 300650Z AUTO 24022G32KT 9999 TS FEW031/// SCT076/// //////CB 20/13 Q1002
cycle: 7

Station Type Date Time Source
EVLA TAF 2021/07/30 06:06 UTC NOAA

TAF TAF EVLA 300502Z 3006/3106 23018G28KT 9999 SCT030
TEMPO 3006/3012 24020G35KT SCT025CB
TEMPO 3006/3009 4000 -TSRA
TEMPO 3012/3103 24030G42KT 3000 SHRA BKN020CB
TEMPO 3012/3018 TS

Example: see airport list